Time;durP1;ratioP1;P1;durP2;ratioP2;P2;SDS_P1;SDS_P2;PMS_P1;PMS_P2;Temp;Humidity;BMP_temperature;BMP_pressure;BME280_temperature;BME280_humidity;BME280_pressure;Samples;Min_cycle;Max_cycle;Signal;HPM_P1;HPM_P2
2023/12/06 00:01:23;;;;;;;2.33;1.88;;;;;;;2.45;100.00;101288.75;5098694;27;97410;-28
2023/12/06 00:03:48;;;;;;;2.28;1.77;;;;;;;2.42;100.00;101289.72;5098621;27;99212;-27
2023/12/06 00:06:14;;;;;;;2.40;1.63;;;;;;;2.46;100.00;101288.75;5098549;27;96560;-27
2023/12/06 00:08:39;;;;;;;2.63;1.63;;;;;;;2.48;100.00;101297.63;5098773;27;96722;-28
2023/12/06 00:11:05;;;;;;;0.88;0.80;;;;;;;2.50;100.00;101298.47;5098658;27;101678;-28
2023/12/06 00:13:30;;;;;;;1.67;1.58;;;;;;;2.51;100.00;101302.88;5098346;27;99703;-27
2023/12/06 00:15:55;;;;;;;2.65;2.25;;;;;;;2.50;100.00;101301.13;5099014;27;96640;-27
2023/12/06 00:18:21;;;;;;;3.17;2.30;;;;;;;2.50;100.00;101298.47;5098605;27;96820;-27
2023/12/06 00:20:46;;;;;;;3.03;1.80;;;;;;;2.52;100.00;101299.28;5098484;27;97925;-27
2023/12/06 00:23:12;;;;;;;2.67;2.35;;;;;;;2.57;100.00;101304.53;5098450;27;97289;-27
2023/12/06 00:25:37;;;;;;;2.80;1.77;;;;;;;2.61;100.00;101313.38;5098786;27;96530;-27
2023/12/06 00:28:02;;;;;;;0.75;0.65;;;;;;;2.62;100.00;101307.13;5098763;27;96813;-27
2023/12/06 00:30:27;;;;;;;1.55;1.42;;;;;;;2.62;100.00;101315.13;5097854;27;97914;-27
2023/12/06 00:32:53;;;;;;;0.77;0.77;;;;;;;2.60;100.00;101312.53;5098089;27;102355;-27
2023/12/06 00:35:18;;;;;;;1.48;1.38;;;;;;;2.65;100.00;101317.78;5098492;27;96539;-27
2023/12/06 00:37:44;;;;;;;2.42;1.60;;;;;;;2.64;100.00;101327.56;5098444;27;96867;-28
2023/12/06 00:40:09;;;;;;;1.95;1.52;;;;;;;2.65;100.00;101326.66;5097848;27;99517;-26
2023/12/06 00:42:35;;;;;;;0.85;0.82;;;;;;;2.66;100.00;101327.53;5097806;27;97328;-27
2023/12/06 00:45:00;;;;;;;2.80;1.58;;;;;;;2.60;100.00;101323.22;5098586;27;96589;-27
2023/12/06 00:47:25;;;;;;;1.75;1.38;;;;;;;2.66;100.00;101332.88;5098492;27;96804;-28
2023/12/06 00:49:51;;;;;;;4.03;1.95;;;;;;;2.64;100.00;101332.91;5097878;27;97877;-27
2023/12/06 00:52:16;;;;;;;2.50;1.83;;;;;;;2.65;100.00;101325.78;5097752;27;103008;-27
2023/12/06 00:54:41;;;;;;;2.97;1.35;;;;;;;2.66;100.00;101331.09;5097313;27;96796;-28
2023/12/06 00:57:07;;;;;;;1.65;1.33;;;;;;;2.66;100.00;101332.88;5098068;27;96804;-27
2023/12/06 00:59:32;;;;;;;1.25;1.02;;;;;;;2.73;100.00;101348.78;5097485;27;108007;-27
2023/12/06 01:01:57;;;;;;;2.92;1.75;;;;;;;2.68;100.00;101339.09;5097530;27;99100;-27
2023/12/06 01:04:22;;;;;;;2.55;2.05;;;;;;;2.72;100.00;101355.03;5097428;27;97658;-27
2023/12/06 01:06:48;;;;;;;1.08;1.00;;;;;;;2.71;100.00;101357.75;5097768;27;99266;-27
2023/12/06 01:09:13;;;;;;;3.28;2.30;;;;;;;2.67;100.00;101346.25;5097989;27;97523;-27
2023/12/06 01:11:38;;;;;;;2.45;1.95;;;;;;;2.72;100.00;101359.53;5097701;27;99485;-28
2023/12/06 01:14:04;;;;;;;1.23;1.08;;;;;;;2.70;100.00;101356.00;5098008;27;96414;-34
2023/12/06 01:16:29;;;;;;;1.65;1.45;;;;;;;2.69;100.00;101355.13;5097621;27;96839;-27
2023/12/06 01:18:54;;;;;;;4.07;2.53;;;;;;;2.77;100.00;101365.66;5097022;27;97960;-28
2023/12/06 01:21:20;;;;;;;2.63;1.20;;;;;;;2.69;100.00;101351.53;5097551;27;97352;-27
2023/12/06 01:23:45;;;;;;;2.67;2.20;;;;;;;2.76;100.00;101364.78;5097698;27;96880;-29
2023/12/06 01:26:10;;;;;;;0.95;0.95;;;;;;;2.75;100.00;101370.16;5098041;27;96727;-27
2023/12/06 01:28:36;;;;;;;10.48;3.03;;;;;;;2.72;100.00;101360.41;5097351;27;97424;-27
2023/12/06 01:31:01;;;;;;;2.42;1.95;;;;;;;2.74;100.00;101368.38;5096869;27;109820;-28
2023/12/06 01:33:26;;;;;;;1.83;1.08;;;;;;;2.72;100.00;101371.09;5097562;27;96742;-27
2023/12/06 01:35:52;;;;;;;1.80;1.42;;;;;;;2.74;100.00;101373.72;5097912;27;97007;-27
2023/12/06 01:38:17;;;;;;;1.05;0.70;;;;;;;2.78;100.00;101382.56;5097303;27;97891;-28
2023/12/06 01:40:43;;;;;;;1.92;1.80;;;;;;;2.73;100.00;101366.63;5097121;27;98828;-27
2023/12/06 01:43:09;;;;;;;2.30;2.00;;;;;;;2.74;100.00;101377.31;5078327;27;96681;-27
2023/12/06 01:45:34;;;;;;;4.05;2.70;;;;;;;2.78;100.00;101383.44;5097156;27;96711;-27
2023/12/06 01:48:02;;;;;;;3.03;2.03;;;;;;;2.79;100.00;101381.66;5097001;27;97923;-27
2023/12/06 01:50:27;;;;;;;3.90;1.92;;;;;;;2.75;100.00;101379.03;5077946;27;100879;-27
2023/12/06 01:52:57;;;;;;;1.67;1.48;;;;;;;2.77;100.00;101384.38;5096926;27;96813;-27
2023/12/06 01:55:23;;;;;;;2.78;1.25;;;;;;;2.75;100.00;101387.06;5077452;27;96772;-27
2023/12/06 01:57:49;;;;;;;1.17;1.08;;;;;;;2.68;100.00;101389.91;5096703;27;99426;-27
2023/12/06 02:00:15;;;;;;;2.25;1.63;;;;;;;2.69;100.00;101394.34;5078537;27;100695;-27
2023/12/06 02:02:41;;;;;;;1.33;1.23;;;;;;;2.63;100.00;101387.31;5097285;27;96621;-28
2023/12/06 02:05:08;;;;;;;5.78;1.27;;;;;;;2.64;100.00;101393.53;5078508;27;96895;-27
2023/12/06 02:07:34;;;;;;;2.53;0.90;;;;;;;2.65;100.00;101409.56;5077472;27;100479;-27
2023/12/06 02:10:00;;;;;;;2.42;1.83;;;;;;;2.63;100.00;101397.16;5061066;27;101355;-27
2023/12/06 02:12:26;;;;;;;3.90;2.05;;;;;;;2.64;100.00;101407.78;5078338;27;96523;-27
2023/12/06 02:14:52;;;;;;;2.80;1.80;;;;;;;2.61;100.00;101404.31;5096831;27;96777;-27
2023/12/06 02:17:18;;;;;;;2.70;1.70;;;;;;;2.64;100.00;101410.47;5077886;27;98928;-27
2023/12/06 02:19:44;;;;;;;2.10;1.60;;;;;;;2.61;100.00;101401.63;5096660;27;97368;-28
2023/12/06 02:22:11;;;;;;;2.65;1.88;;;;;;;2.64;100.00;101418.50;5078175;27;96555;-27
2023/12/06 02:24:38;;;;;;;0.93;0.65;;;;;;;2.66;100.00;101421.16;5078366;27;98002;-27
2023/12/06 02:27:04;;;;;;;0.65;0.63;;;;;;;2.66;100.00;101424.69;5077474;27;100822;-27
2023/12/06 02:29:29;;;;;;;1.65;1.40;;;;;;;2.68;100.00;101417.53;5096604;27;97992;-27
2023/12/06 02:31:55;;;;;;;1.58;1.02;;;;;;;2.64;100.00;101414.94;5096589;27;96568;-27
2023/12/06 02:34:23;;;;;;;3.17;2.10;;;;;;;2.69;100.00;101423.75;5096390;27;96834;-27
2023/12/06 02:36:52;;;;;;;2.55;1.60;;;;;;;2.71;100.00;101417.47;5077536;27;100849;-27
2023/12/06 02:39:17;;;;;;;2.90;1.27;;;;;;;2.74;100.00;101419.19;5077400;27;101070;-28
2023/12/06 02:41:43;;;;;;;1.10;0.98;;;;;;;2.73;100.00;101409.41;5096665;27;96442;-28
2023/12/06 02:44:09;;;;;;;0.70;0.70;;;;;;;2.71;100.00;101404.09;5077867;27;96806;-27
2023/12/06 02:46:37;;;;;;;3.28;0.70;;;;;;;2.81;100.00;101417.28;5096444;27;97242;-27
2023/12/06 02:49:02;;;;;;;1.73;1.58;;;;;;;2.82;100.00;101409.22;5096338;27;97856;-27
2023/12/06 02:51:28;;;;;;;1.35;1.15;;;;;;;2.87;100.00;101410.00;5096274;27;96869;-27
2023/12/06 02:53:54;;;;;;;3.15;1.85;;;;;;;2.90;100.00;101403.72;5095891;27;96858;-28
2023/12/06 02:56:19;;;;;;;1.30;1.20;;;;;;;2.97;100.00;101418.72;5095238;27;99273;-27
2023/12/06 02:58:44;;;;;;;1.35;0.90;;;;;;;2.97;100.00;101419.59;5095891;27;102244;-27
2023/12/06 03:01:10;;;;;;;1.15;0.98;;;;;;;3.03;100.00;101428.41;5096415;27;96506;-28
2023/12/06 03:03:35;;;;;;;0.63;0.63;;;;;;;3.03;100.00;101429.31;5096370;27;96746;-27
2023/12/06 03:06:00;;;;;;;2.33;1.58;;;;;;;3.06;100.00;101431.03;5098761;27;99353;-27
2023/12/06 03:08:26;;;;;;;2.25;1.95;;;;;;;3.08;100.00;101431.91;5102833;27;97326;-27
2023/12/06 03:10:52;;;;;;;1.85;1.50;;;;;;;3.07;100.00;101432.78;5084342;27;96607;-27
2023/12/06 03:13:17;;;;;;;1.08;0.80;;;;;;;3.10;100.00;101424.69;5103287;27;96782;-27
2023/12/06 03:15:43;;;;;;;3.25;1.42;;;;;;;3.15;100.00;101428.19;5102817;27;97415;-27
2023/12/06 03:18:08;;;;;;;1.60;1.15;;;;;;;3.11;100.00;101416.63;5102685;27;97797;-27
2023/12/06 03:20:33;;;;;;;0.98;0.90;;;;;;;3.16;100.00;101430.81;5102581;27;96555;-28
2023/12/06 03:22:59;;;;;;;1.65;1.20;;;;;;;3.18;100.00;101428.09;5102747;27;96808;-27
2023/12/06 03:25:25;;;;;;;1.20;1.05;;;;;;;3.18;100.00;101425.44;5083774;27;101105;-27
2023/12/06 03:27:50;;;;;;;4.57;1.13;;;;;;;3.17;100.00;101423.66;5102159;27;101525;-27
2023/12/06 03:30:15;;;;;;;0.95;0.95;;;;;;;3.20;100.00;101426.28;5103171;27;96524;-29
2023/12/06 03:32:42;;;;;;;1.52;1.02;;;;;;;3.18;100.00;101415.59;5102998;27;96761;-27
2023/12/06 03:35:07;;;;;;;1.67;1.23;;;;;;;3.16;100.00;101417.41;5083703;27;100891;-27
2023/12/06 03:37:33;;;;;;;6.18;2.45;;;;;;;3.20;100.00;101431.63;5102852;27;98534;-27
2023/12/06 03:39:58;;;;;;;2.50;1.67;;;;;;;3.21;100.00;101432.50;5102966;27;96485;-27
2023/12/06 03:42:23;;;;;;;1.33;0.98;;;;;;;3.16;100.00;101419.22;5102685;27;96812;-27
2023/12/06 03:44:49;;;;;;;2.53;1.50;;;;;;;3.15;100.00;101428.19;5101575;27;99319;-27
2023/12/06 03:47:14;;;;;;;0.60;0.55;;;;;;;3.18;100.00;101431.66;5102369;27;97770;-27
2023/12/06 03:49:39;;;;;;;1.90;1.15;;;;;;;3.21;100.00;101433.38;5102438;27;96759;-26
2023/12/06 03:52:05;;;;;;;0.98;0.95;;;;;;;3.17;100.00;101423.66;5102630;27;96854;-27
2023/12/06 03:54:31;;;;;;;9.15;1.75;;;;;;;3.15;100.00;101422.81;5101824;27;97357;-27
2023/12/06 03:56:56;;;;;;;1.98;0.68;;;;;;;3.19;100.00;101427.16;5083421;27;100953;-27
2023/12/06 03:59:22;;;;;;;0.95;0.85;;;;;;;3.17;100.00;101432.59;5102214;27;96466;-27
2023/12/06 04:01:47;;;;;;;1.50;1.05;;;;;;;3.21;100.00;101441.41;5084061;27;96998;-29
2023/12/06 04:04:14;;;;;;;0.90;0.43;;;;;;;3.23;100.00;101447.63;5102019;27;97945;-27
2023/12/06 04:06:39;;;;;;;1.17;0.82;;;;;;;3.24;100.00;101443.13;5083412;27;100753;-27
2023/12/06 04:09:04;;;;;;;0.88;0.82;;;;;;;3.24;100.00;101443.13;5101715;27;96424;-28
2023/12/06 04:11:30;;;;;;;0.60;0.57;;;;;;;3.22;100.00;101448.53;5102172;27;96802;-28
2023/12/06 04:13:56;;;;;;;1.63;0.45;;;;;;;3.23;100.00;101452.97;5083231;27;100748;-27
2023/12/06 04:16:22;;;;;;;2.15;1.20;;;;;;;3.26;100.00;101454.69;5101830;27;108113;-27
2023/12/06 04:18:48;;;;;;;1.92;1.55;;;;;;;3.24;100.00;101443.13;5097914;27;96505;-27
2023/12/06 04:21:13;;;;;;;1.23;0.93;;;;;;;3.22;100.00;101445.88;5098609;27;96868;-28
2023/12/06 04:23:38;;;;;;;1.30;0.93;;;;;;;3.29;100.00;101459.97;5098342;27;97307;-27
2023/12/06 04:26:04;;;;;;;1.35;1.05;;;;;;;3.27;100.00;101448.44;5098618;27;97233;-27
2023/12/06 04:28:29;;;;;;;0.70;0.70;;;;;;;3.30;100.00;101454.59;5098432;27;96521;-28
2023/12/06 04:30:55;;;;;;;1.90;0.98;;;;;;;3.32;100.00;101462.59;5098503;27;96835;-27
2023/12/06 04:33:20;;;;;;;1.02;0.93;;;;;;;3.32;100.00;101460.81;5097926;27;97846;-27
2023/12/06 04:35:45;;;;;;;0.63;0.63;;;;;;;3.28;100.00;101453.75;5098227;27;97729;-29
2023/12/06 04:38:11;;;;;;;0.80;0.75;;;;;;;3.31;100.00;101458.16;5098560;27;96628;-27
2023/12/06 04:40:36;;;;;;;1.08;0.85;;;;;;;3.33;100.00;101459.88;5098031;27;96943;-27
2023/12/06 04:43:01;;;;;;;2.33;1.25;;;;;;;3.31;100.00;101469.78;5097937;27;99205;-27
2023/12/06 04:45:27;;;;;;;1.75;1.00;;;;;;;3.31;100.00;101468.88;5097876;27;99165;-28
2023/12/06 04:47:52;;;;;;;0.52;0.45;;;;;;;3.35;100.00;101479.47;5098298;27;96780;-27
2023/12/06 04:50:17;;;;;;;0.98;0.85;;;;;;;3.34;100.00;101480.41;5098232;27;96958;-27
2023/12/06 04:52:43;;;;;;;0.88;0.63;;;;;;;3.34;100.00;101482.22;5097621;27;99653;-28
2023/12/06 04:55:08;;;;;;;0.77;0.77;;;;;;;3.34;100.00;101479.53;5097590;27;99061;-27
2023/12/06 04:57:34;;;;;;;0.68;0.52;;;;;;;3.33;100.00;101478.63;5097557;27;97043;-27
2023/12/06 05:00:00;;;;;;;1.52;1.17;;;;;;;3.36;100.00;101486.59;5098028;27;96478;-27
2023/12/06 05:02:25;;;;;;;1.50;1.23;;;;;;;3.33;100.00;101477.75;5097908;27;97873;-27
2023/12/06 05:04:50;;;;;;;1.27;1.10;;;;;;;3.39;100.00;101491.00;5097422;27;99309;-27
2023/12/06 05:07:16;;;;;;;1.05;0.80;;;;;;;3.42;100.00;101504.34;5098110;27;96527;-27
2023/12/06 05:09:41;;;;;;;1.17;1.08;;;;;;;3.38;100.00;101502.63;5097536;27;96882;-28
2023/12/06 05:12:07;;;;;;;1.77;1.13;;;;;;;3.30;100.00;101489.41;5097716;27;97530;-27
2023/12/06 05:14:33;;;;;;;2.38;1.00;;;;;;;3.34;100.00;101507.19;5079157;27;100938;-28
2023/12/06 05:16:58;;;;;;;1.60;1.50;;;;;;;3.37;100.00;101507.09;5097937;27;96508;-27
2023/12/06 05:19:23;;;;;;;1.38;1.02;;;;;;;3.35;100.00;101503.56;5097898;27;96826;-28
2023/12/06 05:21:49;;;;;;;10.35;1.27;;;;;;;3.35;100.00;101503.56;5097178;27;97931;-27
2023/12/06 05:24:14;;;;;;;1.65;1.10;;;;;;;3.40;100.00;101514.19;5096672;27;99317;-27
2023/12/06 05:26:40;;;;;;;1.85;0.93;;;;;;;3.33;100.00;101499.16;5097548;27;96491;-27
2023/12/06 05:29:05;;;;;;;1.60;1.48;;;;;;;3.39;100.00;101517.78;5097455;27;96780;-27
2023/12/06 05:31:31;;;;;;;1.45;1.30;;;;;;;3.34;100.00;101507.19;5097230;27;99381;-29
2023/12/06 05:33:56;;;;;;;0.70;0.68;;;;;;;3.33;100.00;101504.53;5097374;27;97613;-27
2023/12/06 05:36:21;;;;;;;0.95;0.90;;;;;;;3.37;100.00;101517.81;5097484;27;96502;-27
2023/12/06 05:38:47;;;;;;;1.00;0.73;;;;;;;3.36;100.00;101518.75;5097989;27;96768;-27
2023/12/06 05:41:12;;;;;;;1.08;0.95;;;;;;;3.29;100.00;101517.09;5097062;27;98946;-27
2023/12/06 05:43:37;;;;;;;3.33;1.60;;;;;;;3.28;100.00;101511.78;5097311;27;97798;-27
2023/12/06 05:46:03;;;;;;;3.13;0.90;;;;;;;3.27;100.00;101515.38;5097363;27;96556;-27
2023/12/06 05:48:29;;;;;;;1.52;0.70;;;;;;;3.31;100.00;101531.34;5078649;27;96864;-27
2023/12/06 05:50:54;;;;;;;0.90;0.80;;;;;;;3.30;100.00;101518.84;5096876;27;97939;-27
2023/12/06 05:53:19;;;;;;;1.67;1.30;;;;;;;3.30;100.00;101526.88;5096519;27;97745;-27
2023/12/06 05:55:45;;;;;;;2.00;1.55;;;;;;;3.26;100.00;101514.47;5097407;27;96398;-27
2023/12/06 05:58:10;;;;;;;0.98;0.73;;;;;;;3.27;100.00;101528.75;5097325;27;96781;-29
2023/12/06 06:00:35;;;;;;;0.98;0.77;;;;;;;3.25;100.00;101534.13;5096747;27;98969;-27
2023/12/06 06:03:01;;;;;;;2.22;1.73;;;;;;;3.23;100.00;101533.28;5096742;27;108573;-27
2023/12/06 06:05:26;;;;;;;0.82;0.80;;;;;;;3.26;100.00;101538.56;5096986;27;96424;-28
2023/12/06 06:07:52;;;;;;;1.27;1.10;;;;;;;3.23;100.00;101535.97;5096862;27;96823;-27
2023/12/06 06:10:17;;;;;;;0.80;0.80;;;;;;;3.23;100.00;101541.31;5095950;27;99268;-28
2023/12/06 06:12:43;;;;;;;0.57;0.57;;;;;;;3.26;100.00;101549.28;5096785;27;97904;-27
2023/12/06 06:15:08;;;;;;;1.30;1.08;;;;;;;3.26;100.00;101540.38;5097055;27;96492;-27
2023/12/06 06:17:34;;;;;;;0.98;0.93;;;;;;;3.27;100.00;101544.81;5097067;27;96786;-27
2023/12/06 06:20:00;;;;;;;1.33;1.13;;;;;;;3.25;100.00;101549.31;5077853;27;101054;-27
2023/12/06 06:22:25;;;;;;;1.27;1.15;;;;;;;3.23;100.00;101546.66;5096460;27;97332;-27
2023/12/06 06:24:50;;;;;;;1.80;1.40;;;;;;;3.24;100.00;101551.09;5096802;27;96605;-27
2023/12/06 06:27:16;;;;;;;1.08;1.05;;;;;;;3.17;100.00;101544.09;5097295;27;96697;-27
2023/12/06 06:29:41;;;;;;;0.65;0.65;;;;;;;3.13;100.00;101543.28;5096370;27;97929;-27
2023/12/06 06:32:06;;;;;;;1.13;0.73;;;;;;;3.10;100.00;101547.81;5096446;27;97799;-28
2023/12/06 06:34:32;;;;;;;0.88;0.88;;;;;;;3.09;100.00;101546.94;5096078;27;96664;-27
2023/12/06 06:36:57;;;;;;;1.38;0.85;;;;;;;3.02;100.00;101544.41;5096725;27;96770;-27
2023/12/06 06:39:23;;;;;;;1.88;1.08;;;;;;;2.96;100.00;101540.94;5096096;27;97914;-27
2023/12/06 06:41:48;;;;;;;1.55;1.30;;;;;;;2.96;100.00;101554.31;5095485;27;97973;-27
2023/12/06 06:44:13;;;;;;;0.45;0.40;;;;;;;2.87;100.00;101550.94;5096631;27;96603;-28
2023/12/06 06:46:39;;;;;;;1.65;0.95;;;;;;;2.82;100.00;101558.16;5096540;27;96626;-28
2023/12/06 06:49:04;;;;;;;1.17;0.93;;;;;;;2.80;100.00;101576.91;5096187;27;97857;-27
2023/12/06 06:51:37;;;;;;;1.13;0.98;;;;;;;2.72;100.00;101571.69;5096072;27;98815;-27
2023/12/06 06:54:04;;;;;;;1.42;0.75;;;;;;;2.67;100.00;101570.91;5073573;27;96884;-27
2023/12/06 06:56:29;;;;;;;1.90;1.30;;;;;;;2.63;100.00;101579.00;5074403;27;97009;-27
2023/12/06 06:58:55;;;;;;;0.95;0.75;;;;;;;2.59;100.00;101579.97;5074916;27;97936;-27
2023/12/06 07:01:20;;;;;;;0.88;0.57;;;;;;;2.57;100.00;101584.44;5075156;27;102004;-27
2023/12/06 07:03:45;;;;;;;1.02;0.80;;;;;;;2.47;100.00;101576.56;5075739;27;96621;-27
2023/12/06 07:06:11;;;;;;;0.80;0.73;;;;;;;2.46;100.00;101581.97;5075556;27;96755;-28
2023/12/06 07:08:37;;;;;;;0.93;0.80;;;;;;;2.40;100.00;101579.38;5075142;27;97417;-27
2023/12/06 07:11:04;;;;;;;1.00;0.77;;;;;;;2.39;100.00;101585.63;5073644;27;101390;-28
2023/12/06 07:13:30;;;;;;;0.30;0.30;;;;;;;2.30;100.00;101575.97;5074054;27;96783;-28
2023/12/06 07:15:55;;;;;;;3.20;1.45;;;;;;;2.30;100.00;101583.97;5075946;27;96770;-27
2023/12/06 07:18:21;;;;;;;1.90;1.27;;;;;;;2.26;100.00;101582.25;5075289;27;98561;-28
2023/12/06 07:20:48;;;;;;;1.70;1.13;;;;;;;2.21;100.00;101587.66;5075065;27;97316;-27
2023/12/06 07:23:13;;;;;;;2.92;1.65;;;;;;;2.21;100.00;101597.47;5074464;27;96599;-27
2023/12/06 07:25:39;;;;;;;1.13;1.00;;;;;;;2.19;100.00;101604.63;5075378;27;96758;-27
2023/12/06 07:28:04;;;;;;;1.48;1.38;;;;;;;2.16;100.00;101599.34;5074761;27;99411;-28
2023/12/06 07:30:30;;;;;;;0.35;0.35;;;;;;;2.12;100.00;101602.06;5074892;27;99326;-27
2023/12/06 07:32:55;;;;;;;1.05;0.75;;;;;;;2.05;100.00;101596.81;5074837;27;96592;-27
2023/12/06 07:35:20;;;;;;;0.47;0.47;;;;;;;2.07;100.00;101606.59;5074440;27;97008;-31
2023/12/06 07:37:46;;;;;;;1.48;1.20;;;;;;;2.05;100.00;101604.81;5073076;27;99345;-27
2023/12/06 07:40:11;;;;;;;0.88;0.82;;;;;;;2.04;100.00;101611.97;5075308;27;97753;-27
2023/12/06 07:42:38;;;;;;;0.68;0.68;;;;;;;2.05;100.00;101619.09;5075189;27;96694;-27
2023/12/06 07:45:04;;;;;;;0.80;0.80;;;;;;;1.99;100.00;101618.28;5073612;27;96896;-27
2023/12/06 07:47:29;;;;;;;0.50;0.35;;;;;;;1.96;100.00;101619.22;5072669;27;102465;-27
2023/12/06 07:49:54;;;;;;;1.77;0.88;;;;;;;2.01;100.00;101627.19;5074223;27;107114;-28
2023/12/06 07:52:20;;;;;;;1.63;1.45;;;;;;;1.95;100.00;101630.78;5075342;27;96609;-28
2023/12/06 07:54:46;;;;;;;1.30;1.15;;;;;;;1.96;100.00;101634.38;5094408;27;97129;-29
2023/12/06 07:57:12;;;;;;;2.88;1.02;;;;;;;1.89;100.00;101633.56;5096150;27;99610;-34
2023/12/06 07:59:38;;;;;;;3.60;1.23;;;;;;;1.89;100.00;101638.91;5077380;27;101012;-27
2023/12/06 08:02:03;;;;;;;1.27;1.17;;;;;;;1.83;100.00;101633.63;5096725;27;96956;-34
2023/12/06 08:04:29;;;;;;;1.35;1.25;;;;;;;1.83;100.00;101638.97;5096916;27;96944;-35
2023/12/06 08:06:55;;;;;;;1.00;0.93;;;;;;;1.87;100.00;101644.25;5077318;27;101250;-28
2023/12/06 08:09:20;;;;;;;1.75;1.13;;;;;;;1.86;100.00;101642.50;5096677;27;97749;-27
2023/12/06 08:11:46;;;;;;;0.60;0.60;;;;;;;1.90;100.00;101648.66;5079932;27;96570;-27
2023/12/06 08:14:13;;;;;;;1.70;1.17;;;;;;;1.85;100.00;101640.72;5080247;27;96782;-27
2023/12/06 08:16:38;;;;;;;0.50;0.50;;;;;;;1.96;100.00;101655.75;5079844;27;101103;-27
2023/12/06 08:19:04;;;;;;;2.60;0.28;;;;;;;1.99;100.00;101655.69;5098668;27;97777;-32
2023/12/06 08:21:29;;;;;;;0.88;0.82;;;;;;;1.99;100.00;101647.69;5098793;27;96647;-27
2023/12/06 08:23:54;;;;;;;1.30;1.17;;;;;;;2.03;100.00;101641.41;5098593;27;96809;-27
2023/12/06 08:26:19;;;;;;;0.30;0.30;;;;;;;2.06;100.00;101641.34;5098146;27;103638;-27
2023/12/06 08:28:45;;;;;;;1.05;0.93;;;;;;;2.09;100.00;101651.97;5098289;27;104640;-27
2023/12/06 08:31:10;;;;;;;0.45;0.38;;;;;;;2.18;100.00;101651.00;5098710;27;96515;-28
2023/12/06 08:33:36;;;;;;;6.28;0.95;;;;;;;2.16;100.00;101648.31;5098389;27;96820;-27
2023/12/06 08:36:01;;;;;;;1.63;1.15;;;;;;;2.17;100.00;101650.13;5097826;27;97389;-27
2023/12/06 08:38:27;;;;;;;0.40;0.40;;;;;;;2.23;100.00;101659.81;5097921;27;99041;-27
2023/12/06 08:40:52;;;;;;;0.63;0.60;;;;;;;2.26;100.00;101651.75;5098402;27;96637;-27
2023/12/06 08:43:17;;;;;;;1.48;0.55;;;;;;;2.33;100.00;101658.78;5098486;27;96772;-27
2023/12/06 08:45:43;;;;;;;1.70;1.17;;;;;;;2.38;100.00;101659.59;5097853;27;98985;-27
2023/12/06 08:48:08;;;;;;;1.08;0.77;;;;;;;2.44;100.00;101666.66;5097853;27;98818;-27
2023/12/06 08:50:34;;;;;;;1.48;1.17;;;;;;;2.45;100.00;101666.63;5079109;27;97138;-28
2023/12/06 08:52:59;;;;;;;1.15;0.88;;;;;;;2.51;100.00;101671.00;5097997;27;96855;-27
2023/12/06 08:55:25;;;;;;;0.50;0.50;;;;;;;2.51;100.00;101671.88;5097768;27;99400;-27
2023/12/06 08:57:51;;;;;;;0.75;0.63;;;;;;;2.57;100.00;101672.69;5098492;27;96604;-27
2023/12/06 09:00:17;;;;;;;0.95;0.93;;;;;;;2.60;100.00;101669.97;5097514;27;96601;-27
2023/12/06 09:02:42;;;;;;;0.77;0.50;;;;;;;2.68;100.00;101682.31;5098525;27;96778;-27
2023/12/06 09:05:11;;;;;;;0.80;0.68;;;;;;;2.74;100.00;101681.31;5078333;27;100845;-27
2023/12/06 09:07:37;;;;;;;1.40;0.77;;;;;;;2.78;100.00;101679.50;5078869;27;100725;-27
2023/12/06 09:10:03;;;;;;;1.02;0.93;;;;;;;2.78;100.00;101675.03;5079377;27;96720;-28
2023/12/06 09:12:29;;;;;;;0.93;0.68;;;;;;;2.85;100.00;101684.72;5079351;27;97055;-27
2023/12/06 09:14:54;;;;;;;0.77;0.70;;;;;;;2.86;100.00;101683.84;5097377;27;99508;-27
2023/12/06 09:17:19;;;;;;;0.65;0.55;;;;;;;2.81;100.00;101671.41;5098011;27;99798;-27
2023/12/06 09:19:45;;;;;;;0.43;0.43;;;;;;;2.90;100.00;101696.22;5097672;27;96761;-27
2023/12/06 09:22:10;;;;;;;1.58;1.10;;;;;;;2.93;100.00;101690.84;5097404;27;96793;-27
2023/12/06 09:24:35;;;;;;;0.28;0.28;;;;;;;2.91;100.00;101681.97;5096837;27;98176;-27
2023/12/06 09:27:01;;;;;;;0.68;0.63;;;;;;;2.96;100.00;101689.91;5097103;27;106709;-27
2023/12/06 09:29:26;;;;;;;0.95;0.90;;;;;;;2.98;100.00;101699.69;5097818;27;96608;-27
2023/12/06 09:31:52;;;;;;;0.70;0.68;;;;;;;3.00;100.00;101702.31;5097614;27;96669;-27
2023/12/06 09:34:17;;;;;;;3.47;1.55;;;;;;;3.04;100.00;101708.50;5096614;27;97885;-27
2023/12/06 09:36:42;;;;;;;3.63;1.40;;;;;;;3.08;100.00;101704.88;5096837;27;104233;-29
2023/12/06 09:39:08;;;;;;;1.70;1.10;;;;;;;3.13;100.00;101698.53;5097621;27;96553;-27
2023/12/06 09:41:33;;;;;;;2.78;1.20;;;;;;;3.26;100.00;101714.38;5097870;27;96806;-28
2023/12/06 09:44:00;;;;;;;0.85;0.85;;;;;;;3.27;100.00;101711.69;5097096;27;97812;-27
2023/12/06 09:46:26;;;;;;;2.38;0.95;;;;;;;3.37;100.00;101712.41;5078440;27;100123;-27
2023/12/06 09:48:54;;;;;;;2.22;1.33;;;;;;;3.46;100.00;101714.94;5096982;27;96748;-27
2023/12/06 09:51:20;;;;;;;2.05;1.02;;;;;;;3.55;100.00;101708.50;5097209;27;96788;-28
2023/12/06 09:53:46;;;;;;;1.70;1.13;;;;;;;3.58;100.00;101708.47;5077918;27;100967;-27
2023/12/06 09:56:12;;;;;;;1.45;0.80;;;;;;;3.66;100.00;101713.66;5096396;27;99138;-34
2023/12/06 09:58:38;;;;;;;0.77;0.77;;;;;;;3.70;100.00;101713.59;5094982;27;97165;-27
2023/12/06 10:01:03;;;;;;;1.45;1.17;;;;;;;3.82;100.00;101718.69;5096210;27;97228;-27
2023/12/06 10:03:29;;;;;;;1.25;1.10;;;;;;;3.89;100.00;101722.16;5096646;27;98261;-27
2023/12/06 10:05:59;;;;;;;1.13;0.75;;;;;;;3.94;100.00;101730.09;5097042;27;99179;-27
2023/12/06 10:08:25;;;;;;;1.98;1.38;;;;;;;3.98;100.00;101723.75;5097009;27;96601;-27
2023/12/06 10:11:09;;;;;;;0.60;0.60;;;;;;;3.96;100.00;101718.44;5078460;27;96974;-27
2023/12/06 10:13:38;;;;;;;0.73;0.57;;;;;;;4.03;100.00;101732.59;5077691;27;101228;-27
2023/12/06 10:16:20;;;;;;;1.38;0.47;;;;;;;4.14;100.00;101730.56;5095231;27;97300;-27
2023/12/06 10:18:49;;;;;;;;;;;;;;;4.24;100.00;101721.44;5078458;27;96658;-27
2023/12/06 10:21:17;;;;;;;1.17;0.55;;;;;;;4.35;100.00;101723.88;5078458;27;96873;-28
2023/12/06 10:23:51;;;;;;;2.17;1.45;;;;;;;4.52;100.00;101711.88;5096273;27;98156;-28
2023/12/06 10:26:16;;;;;;;1.75;1.35;;;;;;;4.75;100.00;101711.38;5077692;27;98927;-27
2023/12/06 10:28:43;;;;;;;0.57;0.57;;;;;;;4.92;100.00;101713.66;5097025;27;96478;-27
2023/12/06 10:31:09;;;;;;;0.45;0.43;;;;;;;5.14;100.00;101714.00;5096866;27;96817;-27
2023/12/06 10:33:35;;;;;;;2.35;1.13;;;;;;;5.40;100.00;101714.19;5096172;27;99229;-27
2023/12/06 10:36:02;;;;;;;2.20;1.15;;;;;;;5.70;100.00;101717.00;5077654;27;100741;-27
2023/12/06 10:38:28;;;;;;;2.22;0.68;;;;;;;5.85;100.00;101713.88;5095897;27;96532;-27
2023/12/06 10:40:54;;;;;;;1.80;1.50;;;;;;;5.95;100.00;101704.66;5096268;27;96555;-27
2023/12/06 10:43:22;;;;;;;1.90;1.20;;;;;;;6.03;100.00;101717.91;5096146;27;98001;-27
2023/12/06 10:45:50;;;;;;;2.03;1.17;;;;;;;6.06;100.00;101707.06;5077515;27;100985;-27
2023/12/06 10:48:17;;;;;;;0.50;0.50;;;;;;;6.06;100.00;101703.50;5096089;27;96656;-27
2023/12/06 10:50:43;;;;;;;0.30;0.30;;;;;;;6.23;100.00;101717.31;5077582;27;96871;-27
2023/12/06 10:53:13;;;;;;;0.80;0.52;;;;;;;6.27;100.00;101707.31;5095819;27;97412;-27
2023/12/06 10:55:40;;;;;;;0.65;0.40;;;;;;;6.42;99.80;101704.19;5077617;27;101035;-27
2023/12/06 10:58:07;;;;;;;0.88;0.85;;;;;;;6.55;99.54;101708.28;5077674;27;96468;-27
2023/12/06 11:00:34;;;;;;;1.75;0.95;;;;;;;6.60;99.25;101705.41;5077603;27;96809;-27
2023/12/06 11:02:59;;;;;;;1.50;0.77;;;;;;;6.66;98.61;101698.97;5076842;27;98791;-27
2023/12/06 11:05:27;;;;;;;1.20;1.00;;;;;;;6.70;98.76;101697.97;5095783;27;99123;-27
2023/12/06 11:08:30;;;;;;;2.25;1.27;;;;;;;6.81;98.22;101711.94;5077558;27;96547;-28
2023/12/06 11:11:01;;;;;;;1.13;0.90;;;;;;;6.80;98.13;101715.56;5096325;27;96768;-27
2023/12/06 11:13:37;;;;;;;1.80;1.60;;;;;;;6.80;97.98;101715.56;5077192;27;100709;-27
2023/12/06 11:16:36;;;;;;;0.40;0.40;;;;;;;6.69;98.53;101709.66;5077335;27;101210;-27
2023/12/06 11:19:02;;;;;;;8.60;0.95;;;;;;;6.47;99.01;101709.44;5096368;27;96410;-27